Time;durP1;ratioP1;P1;durP2;ratioP2;P2;SDS_P1;SDS_P2;PMS_P1;PMS_P2;Temp;Humidity;BMP_temperature;BMP_pressure;BME280_temperature;BME280_humidity;BME280_pressure;Samples;Min_cycle;Max_cycle;Signal;HPM_P1;HPM_P2
2022/06/04 00:00:14;;;;;;;17.50;12.50;;;;;;;12.95;100.00;99930.88;4696627;30;20057;-83
2022/06/04 00:02:59;;;;;;;17.98;11.80;;;;;;;12.95;100.00;99923.75;4696485;30;20052;-85
2022/06/04 00:05:46;;;;;;;20.05;12.75;;;;;;;13.11;100.00;99921.88;4682620;30;20459;-84
2022/06/04 00:08:32;;;;;;;16.77;11.15;;;;;;;13.12;100.00;99926.97;4697965;30;20554;-84
2022/06/04 00:17:24;;;;;;;15.45;10.93;;;;;;;12.96;100.00;99925.38;4784599;29;20064;-83
2022/06/04 00:20:12;;;;;;;18.95;11.95;;;;;;;12.80;100.00;99928.28;4808635;29;20045;-84
2022/06/04 00:23:01;;;;;;;15.70;11.60;;;;;;;12.82;100.00;99923.66;4808790;29;20045;-84
2022/06/04 00:25:49;;;;;;;15.55;11.75;;;;;;;12.60;100.00;99925.44;4821653;29;20422;-84
2022/06/04 00:28:34;;;;;;;19.30;12.23;;;;;;;12.69;100.00;99922.50;4821467;29;20045;-85
2022/06/04 00:31:19;;;;;;;19.42;12.27;;;;;;;12.76;100.00;99941.00;4822141;29;20049;-84
2022/06/04 00:34:08;;;;;;;21.95;13.35;;;;;;;12.60;100.00;99936.78;4808143;29;20050;-83
2022/06/04 00:36:53;;;;;;;18.10;12.50;;;;;;;12.69;100.00;99930.41;4808026;29;20463;-83
2022/06/04 00:39:47;;;;;;;18.05;12.38;;;;;;;12.89;100.00;99935.06;4731521;30;20045;-85
2022/06/04 00:42:32;;;;;;;15.52;11.70;;;;;;;12.53;100.00;99926.19;4719673;30;20062;-83
2022/06/04 00:45:34;;;;;;;18.13;12.15;;;;;;;12.67;100.00;99929.78;4731593;30;20055;-84
2022/06/04 00:48:26;;;;;;;16.33;11.68;;;;;;;12.68;100.00;99922.69;4696296;30;20049;-83
2022/06/04 00:51:10;;;;;;;15.38;11.77;;;;;;;12.74;100.00;99921.13;4684379;30;20095;-84
2022/06/04 00:53:56;;;;;;;16.88;11.82;;;;;;;12.66;100.00;99930.78;4695635;30;20111;-82
2022/06/04 00:56:52;;;;;;;13.88;10.35;;;;;;;12.79;100.00;99935.38;4696562;30;20052;-82
2022/06/04 00:59:56;;;;;;;13.07;9.30;;;;;;;12.43;100.00;99938.81;4696196;30;20056;-85
2022/06/04 01:03:11;;;;;;;14.18;9.95;;;;;;;12.66;100.00;99933.41;4660836;30;20058;-83
2022/06/04 01:06:23;;;;;;;13.77;9.40;;;;;;;12.66;100.00;99930.78;4644868;30;20058;-83
2022/06/04 01:09:26;;;;;;;15.38;8.98;;;;;;;12.61;100.00;99922.63;4632559;30;20047;-83
2022/06/04 01:12:37;;;;;;;12.20;8.40;;;;;;;12.70;100.00;99918.06;4619594;30;20057;-83
2022/06/04 01:15:47;;;;;;;11.75;8.75;;;;;;;12.66;100.00;99930.78;4653999;30;20182;-85
2022/06/04 01:18:44;;;;;;;11.95;8.93;;;;;;;12.70;100.00;99937.28;4693039;30;20147;-84
2022/06/04 01:21:30;;;;;;;17.08;8.75;;;;;;;12.61;100.00;99933.16;4720753;30;20130;-85
2022/06/04 01:24:25;;;;;;;10.80;8.07;;;;;;;12.61;100.00;99943.69;4713227;30;20135;-83
2022/06/04 01:27:21;;;;;;;11.10;8.43;;;;;;;12.60;100.00;99942.06;4713497;30;20107;-84
2022/06/04 01:30:20;;;;;;;14.60;8.02;;;;;;;12.67;100.00;99937.69;4690606;30;20082;-83
2022/06/04 01:33:14;;;;;;;11.85;9.15;;;;;;;12.56;100.00;99936.34;4658937;30;20497;-83
2022/06/04 01:36:19;;;;;;;10.57;7.80;;;;;;;12.49;100.00;99934.63;4693173;30;20075;-84
2022/06/04 01:39:09;;;;;;;11.65;9.20;;;;;;;12.40;100.00;99929.47;4688840;30;20044;-85
2022/06/04 01:42:09;;;;;;;14.57;8.82;;;;;;;12.22;100.00;99936.94;4687805;30;20093;-82
2022/06/04 01:44:57;;;;;;;14.07;9.15;;;;;;;12.16;100.00;99941.13;4712313;30;20188;-84
2022/06/04 01:47:45;;;;;;;14.18;8.80;;;;;;;12.26;100.00;99940.84;4743076;30;20051;-83
2022/06/04 01:50:43;;;;;;;15.70;10.18;;;;;;;12.36;100.00;99932.66;4748176;30;20046;-84
2022/06/04 01:53:32;;;;;;;11.73;8.82;;;;;;;12.29;100.00;99924.69;4748685;30;20527;-83
2022/06/04 01:56:45;;;;;;;16.65;9.05;;;;;;;12.42;100.00;99927.47;4695937;30;20053;-83
2022/06/04 01:59:38;;;;;;;13.77;7.75;;;;;;;12.48;100.00;99925.09;4683943;30;20040;-84
2022/06/04 02:02:37;;;;;;;10.80;8.88;;;;;;;12.42;100.00;99914.31;4704216;30;20132;-83
2022/06/04 02:05:32;;;;;;;11.63;9.35;;;;;;;12.01;100.00;99906.94;4692313;30;20063;-84
2022/06/04 02:08:23;;;;;;;12.52;9.65;;;;;;;11.98;100.00;99897.53;4696678;30;20055;-83
2022/06/04 02:11:12;;;;;;;14.85;9.93;;;;;;;11.94;100.00;99905.97;4721508;30;20150;-84
2022/06/04 02:14:06;;;;;;;13.05;9.63;;;;;;;11.90;100.00;99900.28;4693434;30;20054;-84
2022/06/04 02:17:02;;;;;;;16.38;10.05;;;;;;;12.08;100.00;99891.19;4694709;30;20107;-85
2022/06/04 02:19:46;;;;;;;12.02;9.20;;;;;;;12.14;100.00;99901.81;4725235;30;20059;-85
2022/06/04 02:22:33;;;;;;;11.20;8.75;;;;;;;12.28;100.00;99899.34;4705421;30;20520;-84
2022/06/04 02:25:18;;;;;;;15.32;8.77;;;;;;;12.25;100.00;99910.25;4700911;30;20075;-83
2022/06/04 02:28:06;;;;;;;16.33;9.43;;;;;;;12.25;100.00;99907.63;4702754;30;20048;-83
2022/06/04 02:31:29;;;;;;;16.75;9.95;;;;;;;12.15;100.00;99910.53;4682280;30;20060;-83
2022/06/04 02:34:32;;;;;;;16.38;9.38;;;;;;;12.20;100.00;99915.25;4724076;30;20757;-85
2022/06/04 02:37:45;;;;;;;20.45;9.38;;;;;;;12.17;100.00;99913.81;4726882;30;20056;-87
2022/06/04 02:40:42;;;;;;;14.52;9.15;;;;;;;11.97;100.00;99906.44;4797020;29;20085;-87
2022/06/04 02:43:31;;;;;;;12.32;8.32;;;;;;;12.21;100.00;99901.91;4733989;30;20044;-85
2022/06/04 02:46:41;;;;;;;12.23;9.60;;;;;;;12.10;100.00;99897.91;4734779;30;20435;-85
2022/06/04 02:49:22;;;;;;;13.32;9.10;;;;;;;12.16;100.00;99908.72;4704750;30;20051;-86
2022/06/04 02:52:09;;;;;;;13.05;8.52;;;;;;;12.17;100.00;99899.81;4734407;30;20047;-84
2022/06/04 02:55:15;;;;;;;;;;;;;;;12.12;100.00;99903.81;4694124;30;20152;-85
2022/06/04 02:58:12;;;;;;;12.82;9.70;;;;;;;12.10;100.00;99905.81;4689163;30;19919;-84
2022/06/04 03:00:58;;;;;;;16.10;9.75;;;;;;;12.04;100.00;99911.00;4677160;30;20069;-85
2022/06/04 03:03:43;;;;;;;11.95;9.77;;;;;;;11.97;100.00;99902.97;4681539;30;20041;-85
2022/06/04 03:06:32;;;;;;;16.13;10.50;;;;;;;12.02;100.00;99913.81;4677709;30;20457;-85
2022/06/04 03:09:20;;;;;;;13.15;9.85;;;;;;;11.86;100.00;99907.72;4673828;30;20075;-86
2022/06/04 03:12:15;;;;;;;10.93;9.57;;;;;;;12.02;100.00;99913.00;4639900;30;20047;-85
2022/06/04 03:14:59;;;;;;;14.52;9.65;;;;;;;12.10;100.00;99905.81;4642347;30;20442;-86
2022/06/04 03:17:46;;;;;;;14.75;10.98;;;;;;;12.13;100.00;99899.38;4625203;30;20103;-87
2022/06/04 03:20:30;;;;;;;15.68;10.82;;;;;;;12.09;100.00;99898.91;4655571;30;20052;-86
2022/06/04 03:23:14;;;;;;;16.42;11.52;;;;;;;11.91;100.00;99901.91;4674973;30;20104;-85
2022/06/04 03:26:12;;;;;;;16.00;11.00;;;;;;;12.20;100.00;99899.47;4669523;30;20042;-86
2022/06/04 03:29:03;;;;;;;18.25;11.65;;;;;;;12.09;100.00;99903.38;4663803;30;20046;-86
2022/06/04 03:31:54;;;;;;;15.10;12.23;;;;;;;12.11;100.00;99896.91;4690241;30;20055;-84
2022/06/04 03:34:38;;;;;;;14.77;11.52;;;;;;;12.07;100.00;99890.41;4724968;30;20071;-83
2022/06/04 03:37:22;;;;;;;18.42;11.63;;;;;;;12.07;100.00;99890.41;4722872;30;20115;-84
2022/06/04 03:40:07;;;;;;;13.20;10.60;;;;;;;12.03;100.00;99901.47;4724776;30;20111;-84
2022/06/04 03:42:51;;;;;;;16.77;10.68;;;;;;;11.84;100.00;99904.44;4723867;30;20044;-85
2022/06/04 03:45:35;;;;;;;20.70;10.85;;;;;;;12.06;100.00;99912.44;4721179;30;20052;-84
2022/06/04 03:48:27;;;;;;;14.73;10.93;;;;;;;11.93;100.00;99912.22;4715804;30;20393;-85
2022/06/04 03:51:14;;;;;;;14.88;11.10;;;;;;;11.84;100.00;99909.69;4697493;30;20042;-85
2022/06/04 03:53:59;;;;;;;18.42;10.80;;;;;;;12.12;100.00;99916.16;4679962;30;20054;-82
2022/06/04 03:57:37;;;;;;;18.42;10.95;;;;;;;12.03;100.00;99909.34;4665972;30;20095;-83
2022/06/04 03:59:49;;;;;;;;;;;;;;;12.07;100.00;99914.09;4678454;30;20452;-85
2022/06/04 04:02:34;;;;;;;12.48;9.32;;;;;;;12.09;100.00;99908.66;4679496;30;19965;-85
2022/06/04 04:05:41;;;;;;;18.40;10.70;;;;;;;12.06;100.00;99912.44;4625322;31;20159;-85
2022/06/04 04:08:31;;;;;;;18.50;11.02;;;;;;;12.06;100.00;99909.81;4597385;31;20155;-84
2022/06/04 04:11:18;;;;;;;14.68;9.90;;;;;;;12.14;100.00;99903.66;4594332;31;20079;-85
2022/06/04 04:14:19;;;;;;;13.13;8.98;;;;;;;12.15;100.00;99915.81;4511651;31;20057;-83
2022/06/04 04:17:04;;;;;;;16.25;9.38;;;;;;;12.20;100.00;99910.00;4521218;31;20481;-87
2022/06/04 04:19:48;;;;;;;11.55;8.60;;;;;;;12.20;100.00;99904.72;4522822;31;20140;-85
2022/06/04 04:22:36;;;;;;;11.45;9.23;;;;;;;12.24;100.00;99911.25;4489368;31;20058;-84
2022/06/04 04:25:05;;;;;;;12.95;9.65;;;;;;;12.19;100.00;99906.53;4544780;31;20053;-83
2022/06/04 04:27:49;;;;;;;13.82;9.50;;;;;;;12.18;100.00;99906.72;4563145;31;20107;-85
2022/06/04 04:30:36;;;;;;;12.27;9.57;;;;;;;12.06;100.00;99894.03;4562846;31;20101;-85
2022/06/04 04:33:23;;;;;;;15.65;9.95;;;;;;;12.18;100.00;99917.22;4529808;31;20077;-85
2022/06/04 04:36:09;;;;;;;17.58;10.52;;;;;;;12.34;100.00;99909.13;4514070;31;20051;-85
2022/06/04 04:38:57;;;;;;;15.93;10.50;;;;;;;12.32;100.00;99908.50;4514161;31;20535;-85
2022/06/04 04:41:48;;;;;;;15.77;10.30;;;;;;;12.38;100.00;99918.31;4515098;31;20058;-85
2022/06/04 04:44:46;;;;;;;16.40;10.02;;;;;;;12.22;100.00;99923.78;4521738;31;20146;-85
2022/06/04 04:47:15;;;;;;;13.68;9.93;;;;;;;12.10;100.00;99918.97;4523750;31;20558;-83
2022/06/04 04:50:01;;;;;;;16.10;10.43;;;;;;;12.13;100.00;99921.22;4594841;31;20421;-85
2022/06/04 04:53:01;;;;;;;17.85;10.88;;;;;;;12.20;100.00;99920.53;4559864;31;20107;-85
2022/06/04 04:55:47;;;;;;;14.75;10.10;;;;;;;12.32;100.00;99918.25;4584166;31;20055;-84
2022/06/04 04:58:31;;;;;;;16.55;9.98;;;;;;;12.26;100.00;99927.69;4593798;31;20135;-85
2022/06/04 05:01:35;;;;;;;16.17;10.17;;;;;;;12.40;100.00;99926.84;4563167;31;20181;-85
2022/06/04 05:04:22;;;;;;;14.13;10.50;;;;;;;12.19;100.00;99934.69;4556971;31;20354;-83
2022/06/04 05:07:06;;;;;;;14.35;10.90;;;;;;;12.36;100.00;99930.81;4636054;30;20049;-84
2022/06/04 05:09:56;;;;;;;17.13;9.40;;;;;;;12.37;100.00;99929.81;4664954;30;20549;-85
2022/06/04 05:12:28;;;;;;;14.82;10.27;;;;;;;12.27;100.00;99926.69;4679618;30;20056;-84
2022/06/04 05:15:21;;;;;;;13.38;10.02;;;;;;;12.42;100.00;99924.00;4661194;30;20051;-85
2022/06/04 05:18:07;;;;;;;13.23;9.93;;;;;;;12.37;100.00;99935.09;4679767;30;20041;-84
2022/06/04 05:20:53;;;;;;;16.98;9.73;;;;;;;12.49;100.00;99924.09;4619354;30;20056;-84
2022/06/04 05:23:39;;;;;;;14.02;9.48;;;;;;;12.49;100.00;99932.81;4561792;31;20105;-84
2022/06/04 05:26:23;;;;;;;13.48;9.43;;;;;;;12.41;100.00;99936.38;4567478;31;20053;-83
2022/06/04 05:29:07;;;;;;;12.80;8.30;;;;;;;12.48;100.00;99927.72;4579285;31;20056;-83
2022/06/04 05:31:54;;;;;;;11.73;8.50;;;;;;;12.75;100.00;99933.28;4596531;31;20519;-86
2022/06/04 05:34:46;;;;;;;16.95;8.40;;;;;;;12.52;100.00;99924.56;4578831;31;20048;-82
2022/06/04 05:37:32;;;;;;;13.02;8.75;;;;;;;12.86;100.00;99927.53;4576657;31;20143;-83
2022/06/04 05:39:59;;;;;;;14.50;7.97;;;;;;;12.90;100.00;99931.41;4626755;30;20198;-84
2022/06/04 05:42:43;;;;;;;14.20;8.63;;;;;;;13.04;100.00;99924.44;4628264;31;20090;-84
2022/06/04 05:45:30;;;;;;;14.18;8.85;;;;;;;13.13;100.00;99944.41;4579098;31;20041;-85
2022/06/04 05:48:18;;;;;;;12.55;7.50;;;;;;;13.14;100.00;99938.13;4595198;31;20052;-83
2022/06/04 05:51:01;;;;;;;11.35;8.02;;;;;;;13.10;100.00;99941.34;4593274;31;20470;-84
2022/06/04 05:53:50;;;;;;;10.68;7.30;;;;;;;13.12;100.00;99928.78;4605213;30;20215;-84
2022/06/04 05:56:43;;;;;;;10.38;7.53;;;;;;;13.10;100.00;99936.91;4708411;30;20592;-84
2022/06/04 05:59:18;;;;;;;15.40;7.07;;;;;;;13.06;100.00;99945.34;4752594;30;20056;-85
2022/06/04 06:02:04;;;;;;;9.45;6.75;;;;;;;13.20;100.00;99938.38;4731387;30;20037;-83
2022/06/04 06:04:48;;;;;;;14.07;7.03;;;;;;;13.35;100.00;99947.03;4735172;30;20106;-84
2022/06/04 06:07:38;;;;;;;11.27;6.72;;;;;;;13.34;100.00;99941.94;4734521;30;20048;-84
2022/06/04 06:10:08;;;;;;;12.60;8.20;;;;;;;13.20;100.00;99941.84;4719748;30;20052;-83
2022/06/04 06:12:54;;;;;;;13.50;8.38;;;;;;;13.32;100.00;99943.94;4683032;30;20065;-82
2022/06/04 06:15:39;;;;;;;15.30;7.82;;;;;;;13.57;100.00;99939.94;4665480;30;20554;-82
2022/06/04 06:18:26;;;;;;;11.82;8.23;;;;;;;13.43;100.00;99946.13;4648258;30;20499;-85
2022/06/04 06:21:17;;;;;;;13.70;8.85;;;;;;;13.68;100.00;99948.31;4658338;30;20148;-84
2022/06/04 06:23:47;;;;;;;12.63;8.48;;;;;;;13.56;100.00;99953.31;4663204;30;20049;-83
2022/06/04 06:26:49;;;;;;;11.65;8.20;;;;;;;13.81;100.00;99945.78;4698109;30;20055;-84
2022/06/04 06:29:33;;;;;;;12.40;8.23;;;;;;;13.73;100.00;99945.13;4698586;30;20096;-83
2022/06/04 06:32:13;;;;;;;16.73;9.00;;;;;;;13.66;100.00;99950.34;4682664;30;20567;-84
2022/06/04 06:34:57;;;;;;;13.18;9.05;;;;;;;13.51;100.00;99959.16;4683162;30;20049;-84
2022/06/04 06:37:44;;;;;;;16.13;9.50;;;;;;;13.61;100.00;99955.38;4682343;30;20056;-83
2022/06/04 06:40:43;;;;;;;16.50;10.10;;;;;;;13.16;100.00;99959.03;4680107;30;20165;-83
2022/06/04 06:43:46;;;;;;;15.30;9.43;;;;;;;13.03;100.00;99966.81;4674256;30;20451;-86
2022/06/04 06:46:53;;;;;;;14.55;9.18;;;;;;;13.33;100.00;99966.69;4657896;30;20121;-86
2022/06/04 06:49:21;;;;;;;16.65;9.68;;;;;;;13.49;100.00;99963.00;4669872;30;20046;-87
2022/06/04 06:51:59;;;;;;;17.23;10.30;;;;;;;13.69;100.00;99971.06;4668220;30;20057;-87
2022/06/04 06:54:33;;;;;;;17.63;10.07;;;;;;;13.65;100.00;99970.63;4681149;30;20049;-85
2022/06/04 06:57:24;;;;;;;18.15;9.45;;;;;;;13.65;100.00;99967.19;4687009;30;20571;-86
2022/06/04 07:00:22;;;;;;;15.13;9.60;;;;;;;13.48;100.00;99964.00;4664061;30;20058;-85
2022/06/04 07:02:51;;;;;;;13.68;8.45;;;;;;;13.38;100.00;99969.59;4644664;30;20141;-85
2022/06/04 07:05:35;;;;;;;15.18;8.82;;;;;;;13.53;100.00;99972.97;4647161;30;20073;-85
2022/06/04 07:08:20;;;;;;;11.52;7.47;;;;;;;13.48;100.00;99975.38;4659687;30;20144;-84
2022/06/04 07:11:06;;;;;;;10.55;6.55;;;;;;;13.39;100.00;99973.84;4647633;30;20101;-86
2022/06/04 07:13:57;;;;;;;14.43;7.60;;;;;;;13.54;100.00;99977.22;4643136;30;20581;-85
2022/06/04 07:16:41;;;;;;;11.25;7.05;;;;;;;13.63;100.00;99977.91;4646464;30;20126;-84
2022/06/04 07:19:33;;;;;;;9.70;6.47;;;;;;;13.82;100.00;99965.88;4637153;30;20042;-84
2022/06/04 07:22:17;;;;;;;12.30;6.78;;;;;;;14.02;100.00;99975.75;4685145;30;20052;-85
2022/06/04 07:25:04;;;;;;;15.50;7.00;;;;;;;14.40;100.00;99980.63;4695993;30;20438;-85
2022/06/04 07:28:03;;;;;;;13.65;6.43;;;;;;;14.36;100.00;99979.38;4694869;30;20446;-86
2022/06/04 07:30:29;;;;;;;11.18;6.45;;;;;;;14.26;100.00;99981.56;4697676;30;20056;-86
2022/06/04 07:33:21;;;;;;;14.70;6.03;;;;;;;14.25;100.00;99982.56;4699435;30;20056;-85
2022/06/04 07:36:18;;;;;;;11.52;5.70;;;;;;;13.89;100.00;99994.13;4732514;29;20042;-86
2022/06/04 07:38:55;;;;;;;9.32;5.70;;;;;;;13.75;100.00;99980.03;4802510;29;20518;-86
2022/06/04 07:41:33;;;;;;;6.80;5.50;;;;;;;13.73;100.00;99977.56;4806747;29;20144;-85
2022/06/04 07:44:19;;;;;;;7.60;5.18;;;;;;;13.96;100.00;99982.63;4809271;29;20109;-85
2022/06/04 07:47:07;;;;;;;8.68;5.03;;;;;;;14.13;100.00;99972.53;4820307;29;20046;-84
2022/06/04 07:49:55;;;;;;;7.07;6.07;;;;;;;14.22;100.00;99975.03;4807329;29;20171;-88
2022/06/04 07:52:21;;;;;;;10.07;5.90;;;;;;;14.49;100.00;99965.41;4793886;29;20443;-86
2022/06/04 07:55:12;;;;;;;7.63;5.20;;;;;;;14.62;100.00;99962.00;4784221;29;20126;-86
2022/06/04 07:57:41;;;;;;;7.55;4.95;;;;;;;14.73;100.00;99960.66;4783819;29;20039;-85
2022/06/04 08:00:26;;;;;;;11.75;5.35;;;;;;;14.72;100.00;99961.66;4784767;29;20050;-83
2022/06/04 08:03:10;;;;;;;8.65;5.22;;;;;;;15.01;100.00;99958.88;4787990;29;20524;-84
2022/06/04 08:05:53;;;;;;;;;;;;;;;14.78;100.00;99963.50;4773030;29;20137;-84
2022/06/04 08:08:37;;;;;;;7.60;5.53;;;;;;;14.99;100.00;99962.53;4788898;29;19924;-86
2022/06/04 08:11:32;;;;;;;8.38;4.90;;;;;;;15.02;100.00;99977.16;4786462;29;20506;-85
2022/06/04 08:14:24;;;;;;;8.82;5.57;;;;;;;14.99;100.00;99981.03;4784923;29;20055;-85
2022/06/04 08:17:09;;;;;;;7.22;5.60;;;;;;;15.11;100.00;99977.78;4773597;29;20145;-85
2022/06/04 08:19:44;;;;;;;8.07;5.47;;;;;;;14.75;100.00;99968.38;4777892;29;20051;-85
2022/06/04 08:22:28;;;;;;;11.55;6.05;;;;;;;14.64;100.00;99975.84;4781045;29;20099;-84
2022/06/04 08:24:58;;;;;;;6.47;5.28;;;;;;;14.76;100.00;99964.72;4768687;29;20061;-86
2022/06/04 08:27:45;;;;;;;9.13;6.80;;;;;;;14.67;100.00;99970.16;4820528;29;20046;-84
2022/06/04 08:30:32;;;;;;;9.20;5.30;;;;;;;14.85;100.00;99969.63;4822220;29;20046;-88
2022/06/04 08:33:00;;;;;;;6.20;5.22;;;;;;;14.97;100.00;99976.97;4822681;29;20573;-88
2022/06/04 08:35:44;;;;;;;7.18;4.75;;;;;;;14.98;100.00;99971.50;4805803;29;20520;-84
2022/06/04 08:38:33;;;;;;;8.57;5.97;;;;;;;15.16;100.00;99974.56;4811626;29;20050;-81
2022/06/04 08:41:43;;;;;;;6.03;5.43;;;;;;;15.53;99.90;99983.75;4779641;30;20070;-84
2022/06/04 08:44:33;;;;;;;7.07;5.07;;;;;;;15.51;99.58;99975.19;4778996;30;20498;-86
2022/06/04 08:47:31;;;;;;;6.88;5.20;;;;;;;15.37;99.20;99973.56;4720636;30;20129;-86
2022/06/04 08:50:32;;;;;;;11.13;4.78;;;;;;;15.14;99.94;99988.00;4751208;30;20043;-85
2022/06/04 08:53:40;;;;;;;6.68;4.80;;;;;;;15.08;100.00;99967.63;4765031;30;20039;-86
2022/06/04 08:59:35;;;;;;;6.47;5.03;;;;;;;15.19;98.03;99982.91;4765417;30;19924;-87
2022/06/04 09:02:38;;;;;;;7.65;5.07;;;;;;;15.37;98.15;99986.78;4767728;30;20076;-85
2022/06/04 09:05:39;;;;;;;6.97;5.00;;;;;;;15.60;98.12;99988.22;4753800;30;20149;-85
2022/06/04 09:08:49;;;;;;;7.13;5.07;;;;;;;15.63;98.06;99993.09;4766426;30;20071;-87
2022/06/04 09:11:51;;;;;;;9.05;5.35;;;;;;;15.55;98.33;99981.72;4757764;30;20104;-86
2022/06/04 09:14:49;;;;;;;7.72;4.95;;;;;;;15.68;99.21;99994.13;4775370;30;20130;-85
2022/06/04 09:17:51;;;;;;;5.80;5.18;;;;;;;15.66;97.67;99990.03;4773446;30;20055;-85
2022/06/04 09:20:43;;;;;;;6.82;5.40;;;;;;;15.90;96.79;99985.16;4782194;29;20552;-86
2022/06/04 09:23:51;;;;;;;7.75;4.93;;;;;;;16.27;95.05;99980.19;4720198;30;20126;-87
2022/06/04 09:26:51;;;;;;;8.60;5.13;;;;;;;16.60;94.54;99973.94;4786106;29;20042;-86
2022/06/04 09:30:12;;;;;;;11.02;5.25;;;;;;;16.70;93.17;99974.31;4797412;29;20065;-87
2022/06/04 09:32:56;;;;;;;8.25;5.43;;;;;;;16.65;93.09;99976.75;4806995;29;20207;-83
2022/06/04 09:35:44;;;;;;;8.93;5.63;;;;;;;16.64;93.00;99969.03;4818174;29;20530;-86
2022/06/04 09:38:33;;;;;;;6.93;5.53;;;;;;;17.00;92.50;99978.25;4781742;29;20046;-88
2022/06/04 09:41:23;;;;;;;8.63;5.53;;;;;;;17.08;92.03;99966.56;4770710;30;20131;-88
2022/06/04 09:44:16;;;;;;;9.93;5.30;;;;;;;17.34;90.90;99959.44;4778751;29;20043;-87
2022/06/04 09:47:19;;;;;;;7.13;5.65;;;;;;;17.46;90.85;99960.34;4784718;29;20439;-87
2022/06/04 09:50:16;;;;;;;7.43;5.50;;;;;;;17.50;89.67;99956.25;4768083;30;20067;-88
2022/06/04 09:53:09;;;;;;;6.95;5.80;;;;;;;17.88;88.74;99962.41;4677599;30;20112;-88
2022/06/04 09:56:35;;;;;;;6.93;5.20;;;;;;;17.69;88.66;99966.91;4689602;30;20049;-88
2022/06/04 09:59:28;;;;;;;9.85;6.32;;;;;;;17.17;89.63;99970.59;4687401;30;20507;-88
2022/06/04 10:02:18;;;;;;;6.88;6.18;;;;;;;17.23;90.40;99966.25;4692653;30;20051;-88
2022/06/04 10:05:17;;;;;;;9.82;5.90;;;;;;;17.39;90.37;99970.22;4689548;30;20041;-89
2022/06/04 10:08:13;;;;;;;10.43;6.40;;;;;;;17.47;90.47;99961.97;4636365;30;20061;-89
2022/06/04 10:11:17;;;;;;;6.90;6.15;;;;;;;17.49;90.21;99959.13;4610601;30;1396022;-88
2022/06/04 10:14:39;;;;;;;8.93;5.60;;;;;;;17.27;90.51;99970.91;4651222;30;20054;-88
2022/06/04 10:17:34;;;;;;;8.38;6.15;;;;;;;17.30;90.58;99966.22;4656344;30;20474;-88
2022/06/04 10:20:24;;;;;;;8.35;6.38;;;;;;;17.19;90.34;99963.22;4720331;30;20060;-87
2022/06/04 10:23:14;;;;;;;7.50;6.10;;;;;;;16.92;90.92;99981.13;4767431;29;20061;-88
2022/06/04 10:26:18;;;;;;;7.03;5.93;;;;;;;17.16;91.29;99971.63;4812383;29;20034;-88
2022/06/04 10:29:47;;;;;;;8.15;6.05;;;;;;;17.33;91.23;99966.56;4823102;29;20095;-88
2022/06/04 10:33:02;;;;;;;6.82;6.13;;;;;;;17.21;90.75;99969.13;4716195;30;20043;-89
2022/06/04 10:35:36;;;;;;;6.82;6.18;;;;;;;17.19;90.96;99976.50;4743532;30;20043;-89
2022/06/04 10:39:00;;;;;;;11.57;7.00;;;;;;;17.66;90.62;99964.66;4742700;30;20151;-88
2022/06/04 10:42:06;;;;;;;8.23;6.10;;;;;;;17.38;88.85;99960.63;4749382;30;20044;-88
2022/06/04 10:45:20;;;;;;;7.75;5.95;;;;;;;17.36;88.68;99960.84;4762345;30;20047;-88
2022/06/04 10:48:16;;;;;;;8.82;5.70;;;;;;;17.29;89.30;99960.09;4764860;30;20075;-88
2022/06/04 10:51:27;;;;;;;7.88;6.10;;;;;;;17.16;89.58;99960.19;4824695;29;20118;-88
2022/06/04 10:54:27;;;;;;;7.28;5.90;;;;;;;17.82;88.51;99969.41;4800407;29;20118;-88
2022/06/04 10:57:37;;;;;;;8.23;5.38;;;;;;;17.74;87.52;99968.88;4822869;29;20042;-88
2022/06/04 11:00:36;;;;;;;8.85;6.13;;;;;;;18.12;87.36;99966.09;4812253;29;20468;-88
2022/06/04 11:03:37;;;;;;;12.05;6.32;;;;;;;18.11;86.98;99972.44;4819632;29;20050;-88
2022/06/04 11:06:19;;;;;;;10.98;5.80;;;;;;;17.41;87.01;99973.47;4807730;29;20046;-88
2022/06/04 11:09:16;;;;;;;7.45;6.18;;;;;;;16.93;88.70;99983.56;4821998;29;20055;-88
2022/06/04 11:12:04;;;;;;;6.53;5.93;;;;;;;16.61;89.53;99972.91;4804866;29;20066;-88
2022/06/04 11:14:59;;;;;;;7.38;6.20;;;;;;;17.08;89.66;99991.25;4805051;29;20708;-88
2022/06/04 11:17:54;;;;;;;9.38;7.07;;;;;;;17.18;88.90;99987.31;4721187;30;20056;-88
2022/06/04 11:20:50;;;;;;;8.18;6.65;;;;;;;17.21;88.96;99987.69;4798678;29;20054;-88
2022/06/04 11:23:58;;;;;;;9.13;6.43;;;;;;;16.61;90.03;99994.13;4805214;29;20046;-89
2022/06/04 11:27:08;;;;;;;8.25;6.15;;;;;;;16.52;92.04;99995.41;4785490;30;20063;-87
2022/06/04 11:30:06;;;;;;;8.57;6.65;;;;;;;16.30;92.50;99995.66;4785658;30;20047;-89
2022/06/04 11:33:15;;;;;;;8.13;6.80;;;;;;;15.64;94.39;99989.44;4724873;30;20065;-88
2022/06/04 11:36:17;;;;;;;8.02;6.53;;;;;;;15.84;94.49;100003.47;4724439;30;20063;-88
2022/06/04 11:39:13;;;;;;;7.78;6.13;;;;;;;15.85;94.62;99999.78;4724959;30;20402;-88
2022/06/04 11:42:05;;;;;;;7.82;6.57;;;;;;;16.08;95.17;99998.56;4724235;30;20045;-87
2022/06/04 11:44:44;;;;;;;8.73;6.63;;;;;;;16.45;95.38;99994.59;4711646;30;20048;-87
2022/06/04 11:47:21;;;;;;;8.85;6.65;;;;;;;16.72;94.26;99983.91;4729455;30;20051;-88
2022/06/04 11:50:21;;;;;;;9.32;6.10;;;;;;;16.48;95.03;99986.22;4723264;30;20052;-87
2022/06/04 11:53:43;;;;;;;10.82;7.30;;;;;;;16.61;95.20;99986.16;4703727;30;20048;-85
2022/06/04 11:56:29;;;;;;;10.15;8.07;;;;;;;16.73;94.69;99982.88;4680783;30;20064;-85
2022/06/04 11:58:57;;;;;;;11.43;8.60;;;;;;;16.90;94.63;99976.03;4719261;30;20059;-84
2022/06/04 12:01:37;;;;;;;14.95;9.00;;;;;;;17.21;94.36;99974.44;4725590;30;20084;-86
2022/06/04 12:04:37;;;;;;;12.65;9.27;;;;;;;17.52;93.68;99969.28;4700270;30;20049;-85
2022/06/04 12:07:33;;;;;;;12.13;10.00;;;;;;;17.45;91.94;99964.03;4697051;30;20444;-85
2022/06/04 12:10:30;;;;;;;11.57;9.45;;;;;;;17.41;92.46;99962.84;4702721;30;20056;-84
2022/06/04 12:13:38;;;;;;;11.60;7.43;;;;;;;17.02;93.82;99967.41;4692027;30;20246;-85
2022/06/04 12:17:12;;;;;;;13.35;8.02;;;;;;;16.72;94.87;99962.69;4689291;30;20073;-85
2022/06/04 12:26:02;;;;;;;15.60;8.95;;;;;;;16.25;97.18;99947.78;4718668;30;20174;-89
2022/06/04 12:28:42;;;;;;;13.80;9.43;;;;;;;16.46;97.16;99961.78;4726599;30;20080;-88
2022/06/04 12:31:36;;;;;;;14.88;10.10;;;;;;;16.80;96.65;99957.13;4760868;30;20105;-88
2022/06/04 12:34:56;;;;;;;14.85;10.90;;;;;;;17.03;94.73;99956.59;4754089;30;20546;-89
2022/06/04 12:37:38;;;;;;;16.95;10.82;;;;;;;17.38;93.68;99956.13;4751032;30;20050;-88
2022/06/04 12:40:24;;;;;;;14.55;10.52;;;;;;;17.21;94.19;99942.59;4738891;30;20040;-89
2022/06/04 12:43:30;;;;;;;16.52;10.50;;;;;;;17.04;94.76;99955.56;4728726;30;20052;-87
2022/06/04 12:46:22;;;;;;;14.70;9.75;;;;;;;16.78;95.57;99975.09;4661950;30;20121;-88
2022/06/04 12:49:46;;;;;;;11.48;8.88;;;;;;;16.41;96.93;99962.41;4615163;31;20598;-90
2022/06/04 12:52:38;;;;;;;14.55;8.88;;;;;;;17.09;96.70;99976.13;4615997;31;20047;-88
2022/06/04 12:55:33;;;;;;;10.73;8.43;;;;;;;17.06;95.72;99966.78;4640682;30;20493;-86
2022/06/04 12:58:48;;;;;;;14.38;10.43;;;;;;;16.75;96.91;99959.59;4679731;30;20046;-88
2022/06/04 13:01:51;;;;;;;17.77;11.55;;;;;;;16.67;96.48;99964.09;4669449;30;20042;-88
2022/06/04 13:04:34;;;;;;;17.48;12.38;;;;;;;17.14;95.65;99973.66;4680249;30;20065;-88
2022/06/04 13:07:25;;;;;;;15.00;10.93;;;;;;;17.77;93.65;99949.84;4698918;30;20060;-88
2022/06/04 13:10:04;;;;;;;15.02;10.77;;;;;;;18.93;91.38;99949.09;4710743;30;20049;-87
2022/06/04 13:13:18;;;;;;;13.35;10.05;;;;;;;19.48;89.14;99959.72;4672787;30;20049;-87
2022/06/04 13:15:55;;;;;;;11.90;9.52;;;;;;;19.01;88.91;99955.16;4696263;30;20046;-88
2022/06/04 13:18:56;;;;;;;14.43;11.70;;;;;;;18.62;88.87;99942.19;4704749;30;20045;-87
2022/06/04 13:21:24;;;;;;;15.88;12.40;;;;;;;18.87;88.09;99944.69;4706670;30;20495;-88
2022/06/04 13:24:19;;;;;;;16.75;13.88;;;;;;;18.97;88.25;99958.25;4733444;30;20131;-83
2022/06/04 13:26:58;;;;;;;15.05;13.50;;;;;;;18.62;87.74;99956.28;4734970;30;20041;-85
2022/06/04 13:29:57;;;;;;;16.67;14.65;;;;;;;18.54;87.47;99948.63;4751609;30;20130;-84